Observations for AMSTERDAM SCHIPHOL, Netherlands (EHAM)

EHAM 220455Z 07004KT CAVOK 14/12 Q1021 NOSIG
EHAM 220425Z VRB02KT CAVOK 15/12 Q1021 NOSIG
EHAM 220355Z 08003KT 050V110 CAVOK 15/12 Q1021 NOSIG
EHAM 220325Z 07004KT CAVOK 14/12 Q1021 NOSIG
EHAM 220255Z 08004KT CAVOK 14/12 Q1021 NOSIG
EHAM 220225Z 08005KT CAVOK 15/12 Q1021 NOSIG
EHAM 220155Z 08004KT CAVOK 15/12 Q1022 NOSIG
EHAM 220125Z 09005KT 060V120 CAVOK 15/12 Q1022 NOSIG
EHAM 220055Z 07004KT CAVOK 14/12 Q1022 NOSIG
EHAM 220025Z 08005KT CAVOK 15/12 Q1022 NOSIG
EHAM 212355Z 08005KT CAVOK 14/12 Q1022 NOSIG
EHAM 212325Z 07006KT CAVOK 14/12 Q1022 NOSIG
EHAM 212255Z 07004KT CAVOK 15/12 Q1022 NOSIG
EHAM 212225Z 08004KT CAVOK 15/12 Q1022 NOSIG
EHAM 212155Z 07005KT CAVOK 15/12 Q1022 NOSIG
EHAM 212125Z 05005KT CAVOK 15/12 Q1022 NOSIG
EHAM 212055Z 07005KT CAVOK 15/12 Q1022 NOSIG
EHAM 212025Z 06005KT CAVOK 15/12 Q1022 NOSIG
EHAM 211955Z 05003KT CAVOK 16/13 Q1022 NOSIG
EHAM 211925Z 05004KT CAVOK 16/13 Q1022 NOSIG
EHAM 211855Z 03005KT CAVOK 17/13 Q1022 NOSIG
EHAM 211825Z 02004KT 9999 FEW032 18/13 Q1022 NOSIG  
EHAM 211755Z 03005KT 9999 FEW030 19/13 Q1022 NOSIG  
EHAM 211725Z 34005KT 9999 FEW030 19/14 Q1022 NOSIG  
EHAM 211655Z 36005KT 9999 FEW030 20/13 Q1022 NOSIG  
EHAM 211625Z 33006KT 9999 FEW032 20/13 Q1022 NOSIG  
EHAM 211555Z 31006KT 9999 FEW032 20/13 Q1022 NOSIG  
EHAM 211525Z 31004KT 9999 FEW032 20/13 Q1022 NOSIG  
EHAM 211455Z 25004KT 9999 FEW032 21/13 Q1022 NOSIG  
EHAM 211425Z 28005KT 9999 FEW030 21/13 Q1022 NOSIG  
EHAM 211355Z 28005KT 9999 FEW028 20/13 Q1022 NOSIG  
EHAM 211325Z 30006KT 9999 FEW027 20/13 Q1022 NOSIG  
EHAM 211255Z 26006KT 9999 FEW027 21/14 Q1023 NOSIG  
EHAM 211225Z 28003KT 230V320 9999 FEW025 19/14 Q1023 NOSIG  
EHAM 211155Z 23004KT 190V280 9999 FEW022 19/14 Q1023 NOSIG  
EHAM 211125Z 26005KT 180V320 9999 FEW025TCU 19/14 Q1023 NOSIG   
EHAM 211055Z 19005KT 160V230 9999 VCSH FEW015 FEW022TCU 19/13 Q1023 NOSIG   
EHAM 211025Z VRB01KT 9999 -SHRA FEW012 FEW016TCU SCT045 19/14 Q1023 NOSIG   
EHAM 210955Z 01003KT 9999 FEW012 FEW016TCU 18/15 Q1023 NOSIG
EHAM 210925Z 08004KT 030V130 9999 VCSH FEW008 FEW015TCU 18/16 Q1023 NOSIG   
EHAM 210855Z 12003KT 9999 VCSH FEW008 FEW025TCU 17/15 Q1023 NOSIG   
EHAM 210825Z 12003KT 9999 FEW016 FEW025TCU 16/15 Q1023 NOSIG
EHAM 210755Z 14004KT 9999 VCSH FEW016 FEW025TCU 15/14 Q1023 NOSIG   
EHAM 210725Z 15005KT 9999 -SHRA FEW015 FEW020TCU 15/14 Q1023 NOSIG  
EHAM 210655Z 14004KT 110V170 9999 -SHRA FEW015 FEW020TCU 15/14 Q1023 NOSIG  
EHAM 210625Z 10003KT 070V230 9999 VCSH FEW013 FEW018TCU 15/14 Q1022 NOSIG   
EHAM 210555Z 10003KT 060V130 9999 -SHRA FEW013 FEW022TCU 14/14 Q1022 NOSIG  
EHAM 210525Z 12004KT 9999 -SHRA FEW021 SCT035 14/13 Q1022 NOSIG 
EHAM 210455Z 14004KT 9999 FEW032 SCT040 14/13 Q1022 NOSIG   
EHAM 210425Z 14005KT 9999 FEW031 13/12 Q1022 NOSIG